sensor_id;sensor_type;location;lat;lon;timestamp;P1;durP1;ratioP1;P2;durP2;ratioP2
13267;SDS011;6702;47.068;15.458;2022-09-17T00:00:46;4.50;;;4.10;;
13267;SDS011;6702;47.068;15.458;2022-09-17T00:03:51;5.37;;;4.87;;
13267;SDS011;6702;47.068;15.458;2022-09-17T00:06:56;6.07;;;5.40;;
13267;SDS011;6702;47.068;15.458;2022-09-17T00:10:00;4.90;;;4.40;;
13267;SDS011;6702;47.068;15.458;2022-09-17T00:13:03;5.60;;;5.17;;
13267;SDS011;6702;47.068;15.458;2022-09-17T00:16:07;4.87;;;4.40;;
13267;SDS011;6702;47.068;15.458;2022-09-17T00:19:11;4.93;;;4.47;;
13267;SDS011;6702;47.068;15.458;2022-09-17T00:22:16;5.27;;;4.77;;
13267;SDS011;6702;47.068;15.458;2022-09-17T00:25:20;5.80;;;4.97;;
13267;SDS011;6702;47.068;15.458;2022-09-17T00:28:24;6.90;;;6.07;;
13267;SDS011;6702;47.068;15.458;2022-09-17T00:31:27;5.03;;;4.60;;
13267;SDS011;6702;47.068;15.458;2022-09-17T00:34:31;5.27;;;4.87;;
13267;SDS011;6702;47.068;15.458;2022-09-17T00:37:35;5.00;;;4.50;;
13267;SDS011;6702;47.068;15.458;2022-09-17T00:40:39;4.80;;;4.40;;
13267;SDS011;6702;47.068;15.458;2022-09-17T00:43:43;5.07;;;4.57;;
13267;SDS011;6702;47.068;15.458;2022-09-17T00:46:47;5.87;;;5.13;;
13267;SDS011;6702;47.068;15.458;2022-09-17T00:49:54;6.70;;;4.90;;
13267;SDS011;6702;47.068;15.458;2022-09-17T00:53:00;6.53;;;4.90;;
13267;SDS011;6702;47.068;15.458;2022-09-17T00:56:10;4.40;;;4.10;;
13267;SDS011;6702;47.068;15.458;2022-09-17T00:59:19;4.83;;;4.40;;
13267;SDS011;6702;47.068;15.458;2022-09-17T01:02:23;4.37;;;4.07;;
13267;SDS011;6702;47.068;15.458;2022-09-17T01:05:30;4.37;;;3.97;;
13267;SDS011;6702;47.068;15.458;2022-09-17T01:08:40;3.93;;;3.50;;
13267;SDS011;6702;47.068;15.458;2022-09-17T01:12:14;4.20;;;3.80;;
13267;SDS011;6702;47.068;15.458;2022-09-17T01:15:26;3.23;;;2.90;;
13267;SDS011;6702;47.068;15.458;2022-09-17T01:18:39;4.33;;;3.93;;
13267;SDS011;6702;47.068;15.458;2022-09-17T01:21:53;4.43;;;4.00;;
13267;SDS011;6702;47.068;15.458;2022-09-17T01:25:07;5.10;;;4.70;;
13267;SDS011;6702;47.068;15.458;2022-09-17T01:28:28;4.10;;;3.70;;
13267;SDS011;6702;47.068;15.458;2022-09-17T01:31:44;4.60;;;4.20;;
13267;SDS011;6702;47.068;15.458;2022-09-17T01:34:55;3.30;;;2.97;;
13267;SDS011;6702;47.068;15.458;2022-09-17T01:38:08;3.67;;;3.37;;
13267;SDS011;6702;47.068;15.458;2022-09-17T01:41:17;4.50;;;4.10;;
13267;SDS011;6702;47.068;15.458;2022-09-17T01:44:30;4.80;;;4.40;;
13267;SDS011;6702;47.068;15.458;2022-09-17T01:47:41;4.70;;;3.90;;
13267;SDS011;6702;47.068;15.458;2022-09-17T01:50:49;4.60;;;4.20;;
13267;SDS011;6702;47.068;15.458;2022-09-17T01:53:57;3.90;;;3.60;;
13267;SDS011;6702;47.068;15.458;2022-09-17T01:57:03;3.77;;;3.47;;
13267;SDS011;6702;47.068;15.458;2022-09-17T02:00:11;4.60;;;4.20;;
13267;SDS011;6702;47.068;15.458;2022-09-17T02:03:20;4.40;;;4.00;;
13267;SDS011;6702;47.068;15.458;2022-09-17T02:06:28;4.93;;;4.53;;
13267;SDS011;6702;47.068;15.458;2022-09-17T02:09:34;4.53;;;4.13;;
13267;SDS011;6702;47.068;15.458;2022-09-17T02:12:43;5.20;;;4.80;;
13267;SDS011;6702;47.068;15.458;2022-09-17T02:15:51;6.20;;;3.83;;
13267;SDS011;6702;47.068;15.458;2022-09-17T02:19:01;5.60;;;5.10;;
13267;SDS011;6702;47.068;15.458;2022-09-17T02:22:11;5.33;;;4.93;;
13267;SDS011;6702;47.068;15.458;2022-09-17T02:25:22;6.07;;;4.70;;
13267;SDS011;6702;47.068;15.458;2022-09-17T02:28:30;5.27;;;4.83;;
13267;SDS011;6702;47.068;15.458;2022-09-17T02:31:39;5.43;;;4.93;;
13267;SDS011;6702;47.068;15.458;2022-09-17T02:34:44;6.57;;;5.97;;
13267;SDS011;6702;47.068;15.458;2022-09-17T02:37:48;5.80;;;5.20;;
13267;SDS011;6702;47.068;15.458;2022-09-17T02:40:55;5.87;;;5.37;;
13267;SDS011;6702;47.068;15.458;2022-09-17T02:44:04;5.73;;;5.23;;
13267;SDS011;6702;47.068;15.458;2022-09-17T02:50:48;4.67;;;4.27;;
13267;SDS011;6702;47.068;15.458;2022-09-17T02:54:04;6.07;;;5.57;;
13267;SDS011;6702;47.068;15.458;2022-09-17T02:57:17;4.60;;;4.07;;
13267;SDS011;6702;47.068;15.458;2022-09-17T03:00:25;6.00;;;5.50;;
13267;SDS011;6702;47.068;15.458;2022-09-17T03:03:30;5.20;;;4.80;;
13267;SDS011;6702;47.068;15.458;2022-09-17T03:06:38;4.90;;;4.50;;
13267;SDS011;6702;47.068;15.458;2022-09-17T03:09:41;5.23;;;4.73;;
13267;SDS011;6702;47.068;15.458;2022-09-17T03:12:45;5.43;;;4.93;;
13267;SDS011;6702;47.068;15.458;2022-09-17T03:15:48;5.87;;;5.27;;
13267;SDS011;6702;47.068;15.458;2022-09-17T03:18:51;5.70;;;5.20;;
13267;SDS011;6702;47.068;15.458;2022-09-17T03:21:55;6.63;;;5.93;;
13267;SDS011;6702;47.068;15.458;2022-09-17T03:24:58;7.30;;;5.87;;
13267;SDS011;6702;47.068;15.458;2022-09-17T03:28:01;5.10;;;4.60;;
13267;SDS011;6702;47.068;15.458;2022-09-17T03:31:05;6.10;;;5.50;;
13267;SDS011;6702;47.068;15.458;2022-09-17T03:34:08;5.63;;;5.03;;
13267;SDS011;6702;47.068;15.458;2022-09-17T03:37:12;5.47;;;4.97;;
13267;SDS011;6702;47.068;15.458;2022-09-17T03:40:15;6.70;;;6.10;;
13267;SDS011;6702;47.068;15.458;2022-09-17T03:43:20;5.77;;;5.07;;
13267;SDS011;6702;47.068;15.458;2022-09-17T03:46:23;5.60;;;5.10;;
13267;SDS011;6702;47.068;15.458;2022-09-17T03:49:26;7.20;;;6.50;;
13267;SDS011;6702;47.068;15.458;2022-09-17T03:52:31;6.47;;;5.93;;
13267;SDS011;6702;47.068;15.458;2022-09-17T03:55:36;5.83;;;5.33;;
13267;SDS011;6702;47.068;15.458;2022-09-17T03:58:39;5.90;;;5.40;;
13267;SDS011;6702;47.068;15.458;2022-09-17T04:01:42;6.20;;;5.60;;
13267;SDS011;6702;47.068;15.458;2022-09-17T04:04:46;5.70;;;5.20;;
13267;SDS011;6702;47.068;15.458;2022-09-17T04:07:50;6.90;;;6.30;;
13267;SDS011;6702;47.068;15.458;2022-09-17T04:10:53;6.93;;;6.33;;
13267;SDS011;6702;47.068;15.458;2022-09-17T04:13:56;12.13;;;6.60;;
13267;SDS011;6702;47.068;15.458;2022-09-17T04:16:59;5.00;;;4.60;;
13267;SDS011;6702;47.068;15.458;2022-09-17T04:20:03;8.00;;;4.67;;
13267;SDS011;6702;47.068;15.458;2022-09-17T04:23:08;5.23;;;4.73;;
13267;SDS011;6702;47.068;15.458;2022-09-17T04:26:13;5.40;;;4.90;;
13267;SDS011;6702;47.068;15.458;2022-09-17T04:29:16;5.40;;;4.90;;
13267;SDS011;6702;47.068;15.458;2022-09-17T04:32:19;5.20;;;4.80;;
13267;SDS011;6702;47.068;15.458;2022-09-17T04:35:22;5.93;;;5.37;;
13267;SDS011;6702;47.068;15.458;2022-09-17T04:38:26;4.87;;;4.23;;
13267;SDS011;6702;47.068;15.458;2022-09-17T04:41:30;5.20;;;4.80;;
13267;SDS011;6702;47.068;15.458;2022-09-17T04:44:33;5.20;;;4.70;;
13267;SDS011;6702;47.068;15.458;2022-09-17T04:47:37;4.97;;;4.57;;
13267;SDS011;6702;47.068;15.458;2022-09-17T04:50:40;4.23;;;3.93;;
13267;SDS011;6702;47.068;15.458;2022-09-17T04:53:45;4.70;;;4.20;;
13267;SDS011;6702;47.068;15.458;2022-09-17T04:56:48;5.43;;;4.80;;
13267;SDS011;6702;47.068;15.458;2022-09-17T04:59:52;5.00;;;4.07;;
13267;SDS011;6702;47.068;15.458;2022-09-17T05:02:55;5.87;;;4.70;;
13267;SDS011;6702;47.068;15.458;2022-09-17T05:05:58;6.63;;;4.50;;
13267;SDS011;6702;47.068;15.458;2022-09-17T05:09:02;5.40;;;4.77;;
13267;SDS011;6702;47.068;15.458;2022-09-17T05:12:06;5.20;;;4.80;;
13267;SDS011;6702;47.068;15.458;2022-09-17T05:15:09;7.13;;;5.17;;
13267;SDS011;6702;47.068;15.458;2022-09-17T05:18:12;5.33;;;4.50;;
13267;SDS011;6702;47.068;15.458;2022-09-17T05:21:16;4.77;;;4.10;;
13267;SDS011;6702;47.068;15.458;2022-09-17T05:24:20;4.23;;;3.87;;
13267;SDS011;6702;47.068;15.458;2022-09-17T05:27:23;4.70;;;4.30;;
13267;SDS011;6702;47.068;15.458;2022-09-17T05:30:26;4.67;;;4.33;;
13267;SDS011;6702;47.068;15.458;2022-09-17T05:33:30;4.50;;;4.20;;
13267;SDS011;6702;47.068;15.458;2022-09-17T05:36:33;4.77;;;4.37;;
13267;SDS011;6702;47.068;15.458;2022-09-17T05:39:38;4.90;;;4.43;;
13267;SDS011;6702;47.068;15.458;2022-09-17T05:42:41;4.00;;;3.30;;
13267;SDS011;6702;47.068;15.458;2022-09-17T05:45:44;4.83;;;4.37;;
13267;SDS011;6702;47.068;15.458;2022-09-17T05:48:47;5.00;;;4.60;;
13267;SDS011;6702;47.068;15.458;2022-09-17T05:51:50;4.73;;;4.33;;
13267;SDS011;6702;47.068;15.458;2022-09-17T05:54:55;5.93;;;4.60;;
13267;SDS011;6702;47.068;15.458;2022-09-17T05:57:58;4.23;;;3.93;;
13267;SDS011;6702;47.068;15.458;2022-09-17T06:01:01;3.97;;;3.60;;
13267;SDS011;6702;47.068;15.458;2022-09-17T06:04:05;3.87;;;3.57;;
13267;SDS011;6702;47.068;15.458;2022-09-17T06:07:08;4.13;;;3.83;;
13267;SDS011;6702;47.068;15.458;2022-09-17T06:10:12;4.40;;;4.10;;
13267;SDS011;6702;47.068;15.458;2022-09-17T06:13:15;5.90;;;4.30;;
13267;SDS011;6702;47.068;15.458;2022-09-17T06:16:19;5.27;;;4.80;;
13267;SDS011;6702;47.068;15.458;2022-09-17T06:19:23;5.10;;;4.60;;
13267;SDS011;6702;47.068;15.458;2022-09-17T06:22:26;5.77;;;5.27;;
13267;SDS011;6702;47.068;15.458;2022-09-17T06:25:30;6.17;;;4.43;;
13267;SDS011;6702;47.068;15.458;2022-09-17T06:28:34;5.43;;;4.60;;
13267;SDS011;6702;47.068;15.458;2022-09-17T06:31:42;4.73;;;4.30;;
13267;SDS011;6702;47.068;15.458;2022-09-17T06:34:45;8.10;;;4.77;;
13267;SDS011;6702;47.068;15.458;2022-09-17T06:37:49;6.43;;;4.50;;
13267;SDS011;6702;47.068;15.458;2022-09-17T06:40:53;4.70;;;4.30;;
13267;SDS011;6702;47.068;15.458;2022-09-17T06:43:56;5.80;;;5.20;;
13267;SDS011;6702;47.068;15.458;2022-09-17T06:47:00;5.60;;;4.50;;
13267;SDS011;6702;47.068;15.458;2022-09-17T06:50:03;7.37;;;4.83;;
13267;SDS011;6702;47.068;15.458;2022-09-17T06:53:07;4.70;;;4.20;;
13267;SDS011;6702;47.068;15.458;2022-09-17T06:56:12;5.67;;;5.07;;
13267;SDS011;6702;47.068;15.458;2022-09-17T06:59:15;4.37;;;4.07;;
13267;SDS011;6702;47.068;15.458;2022-09-17T07:02:19;4.77;;;4.47;;
13267;SDS011;6702;47.068;15.458;2022-09-17T07:05:22;5.80;;;5.30;;
13267;SDS011;6702;47.068;15.458;2022-09-17T07:08:25;5.53;;;5.03;;
13267;SDS011;6702;47.068;15.458;2022-09-17T07:11:29;5.77;;;5.27;;
13267;SDS011;6702;47.068;15.458;2022-09-17T07:14:33;5.83;;;5.30;;
13267;SDS011;6702;47.068;15.458;2022-09-17T07:17:37;8.70;;;5.30;;
13267;SDS011;6702;47.068;15.458;2022-09-17T07:20:40;5.60;;;5.10;;
13267;SDS011;6702;47.068;15.458;2022-09-17T07:23:43;5.20;;;4.80;;
13267;SDS011;6702;47.068;15.458;2022-09-17T07:26:48;7.03;;;5.10;;
13267;SDS011;6702;47.068;15.458;2022-09-17T07:29:51;5.00;;;4.60;;
13267;SDS011;6702;47.068;15.458;2022-09-17T07:32:55;5.90;;;5.00;;
13267;SDS011;6702;47.068;15.458;2022-09-17T07:36:03;6.60;;;6.00;;
13267;SDS011;6702;47.068;15.458;2022-09-17T07:39:07;6.77;;;6.23;;
13267;SDS011;6702;47.068;15.458;2022-09-17T07:42:12;6.87;;;6.27;;
13267;SDS011;6702;47.068;15.458;2022-09-17T07:45:15;6.60;;;6.00;;
13267;SDS011;6702;47.068;15.458;2022-09-17T07:48:18;6.40;;;5.90;;
13267;SDS011;6702;47.068;15.458;2022-09-17T07:51:22;7.27;;;6.23;;
13267;SDS011;6702;47.068;15.458;2022-09-17T07:54:28;6.73;;;6.13;;
13267;SDS011;6702;47.068;15.458;2022-09-17T07:57:33;7.40;;;6.77;;
13267;SDS011;6702;47.068;15.458;2022-09-17T08:00:37;6.63;;;6.10;;
13267;SDS011;6702;47.068;15.458;2022-09-17T08:03:40;6.60;;;6.10;;
13267;SDS011;6702;47.068;15.458;2022-09-17T08:06:43;6.10;;;5.60;;
13267;SDS011;6702;47.068;15.458;2022-09-17T08:09:48;7.40;;;6.63;;
13267;SDS011;6702;47.068;15.458;2022-09-17T08:12:55;6.00;;;5.50;;
13267;SDS011;6702;47.068;15.458;2022-09-17T08:15:58;5.53;;;5.10;;
13267;SDS011;6702;47.068;15.458;2022-09-17T08:19:02;5.97;;;5.37;;
13267;SDS011;6702;47.068;15.458;2022-09-17T08:22:05;6.33;;;5.73;;
13267;SDS011;6702;47.068;15.458;2022-09-17T08:25:09;6.20;;;5.53;;
13267;SDS011;6702;47.068;15.458;2022-09-17T08:28:13;6.00;;;5.40;;
13267;SDS011;6702;47.068;15.458;2022-09-17T08:31:17;6.80;;;6.20;;
13267;SDS011;6702;47.068;15.458;2022-09-17T08:34:21;6.93;;;6.30;;
13267;SDS011;6702;47.068;15.458;2022-09-17T08:52:50;6.87;;;6.17;;
13267;SDS011;6702;47.068;15.458;2022-09-17T08:56:08;6.67;;;5.97;;
13267;SDS011;6702;47.068;15.458;2022-09-17T08:59:16;7.30;;;6.60;;
13267;SDS011;6702;47.068;15.458;2022-09-17T09:02:31;7.63;;;6.97;;
13267;SDS011;6702;47.068;15.458;2022-09-17T09:05:44;7.73;;;7.03;;
13267;SDS011;6702;47.068;15.458;2022-09-17T09:08:50;8.40;;;7.57;;
13267;SDS011;6702;47.068;15.458;2022-09-17T09:12:01;6.83;;;6.23;;
13267;SDS011;6702;47.068;15.458;2022-09-17T09:15:15;7.23;;;6.53;;
13267;SDS011;6702;47.068;15.458;2022-09-17T09:18:29;6.47;;;5.90;;
13267;SDS011;6702;47.068;15.458;2022-09-17T09:21:36;7.70;;;7.10;;
13267;SDS011;6702;47.068;15.458;2022-09-17T09:24:51;8.80;;;8.10;;
13267;SDS011;6702;47.068;15.458;2022-09-17T09:28:07;7.53;;;6.83;;
13267;SDS011;6702;47.068;15.458;2022-09-17T09:31:28;7.70;;;7.10;;
13267;SDS011;6702;47.068;15.458;2022-09-17T09:34:52;7.23;;;6.63;;
13267;SDS011;6702;47.068;15.458;2022-09-17T09:37:58;6.53;;;6.03;;
13267;SDS011;6702;47.068;15.458;2022-09-17T09:41:08;7.87;;;7.20;;
13267;SDS011;6702;47.068;15.458;2022-09-17T09:44:14;7.50;;;6.77;;
13267;SDS011;6702;47.068;15.458;2022-09-17T09:50:58;7.20;;;6.57;;
13267;SDS011;6702;47.068;15.458;2022-09-17T09:54:15;7.00;;;6.40;;
13267;SDS011;6702;47.068;15.458;2022-09-17T09:57:34;7.93;;;7.10;;
13267;SDS011;6702;47.068;15.458;2022-09-17T10:00:44;7.07;;;6.40;;
13267;SDS011;6702;47.068;15.458;2022-09-17T10:03:49;3.93;;;3.60;;
13267;SDS011;6702;47.068;15.458;2022-09-17T10:06:58;4.03;;;3.60;;
13267;SDS011;6702;47.068;15.458;2022-09-17T10:10:07;2.73;;;2.53;;
13267;SDS011;6702;47.068;15.458;2022-09-17T10:13:13;3.13;;;2.70;;
13267;SDS011;6702;47.068;15.458;2022-09-17T10:16:18;2.60;;;2.40;;
13267;SDS011;6702;47.068;15.458;2022-09-17T10:19:23;2.00;;;1.80;;
13267;SDS011;6702;47.068;15.458;2022-09-17T10:22:28;5.67;;;2.03;;
13267;SDS011;6702;47.068;15.458;2022-09-17T10:25:33;2.80;;;2.20;;
13267;SDS011;6702;47.068;15.458;2022-09-17T10:28:45;2.40;;;2.20;;
13267;SDS011;6702;47.068;15.458;2022-09-17T10:31:52;2.30;;;2.10;;
13267;SDS011;6702;47.068;15.458;2022-09-17T10:34:57;1.50;;;1.40;;
13267;SDS011;6702;47.068;15.458;2022-09-17T10:38:04;1.17;;;1.07;;
13267;SDS011;6702;47.068;15.458;2022-09-17T10:41:27;1.30;;;1.10;;
13267;SDS011;6702;47.068;15.458;2022-09-17T10:44:32;1.70;;;1.40;;
13267;SDS011;6702;47.068;15.458;2022-09-17T10:47:40;2.70;;;1.27;;
13267;SDS011;6702;47.068;15.458;2022-09-17T10:50:46;1.17;;;1.10;;
13267;SDS011;6702;47.068;15.458;2022-09-17T10:53:55;2.00;;;1.20;;
13267;SDS011;6702;47.068;15.458;2022-09-17T10:57:08;1.43;;;1.30;;
13267;SDS011;6702;47.068;15.458;2022-09-17T11:00:17;1.63;;;1.53;;
13267;SDS011;6702;47.068;15.458;2022-09-17T11:03:36;2.10;;;1.87;;
13267;SDS011;6702;47.068;15.458;2022-09-17T11:07:00;2.03;;;1.40;;
13267;SDS011;6702;47.068;15.458;2022-09-17T11:10:21;2.10;;;1.40;;
13267;SDS011;6702;47.068;15.458;2022-09-17T11:13:30;1.47;;;1.37;;
13267;SDS011;6702;47.068;15.458;2022-09-17T11:16:43;1.70;;;1.60;;
13267;SDS011;6702;47.068;15.458;2022-09-17T11:19:53;2.33;;;2.00;;
13267;SDS011;6702;47.068;15.458;2022-09-17T11:23:06;2.37;;;2.10;;
13267;SDS011;6702;47.068;15.458;2022-09-17T11:26:23;1.77;;;1.67;;
13267;SDS011;6702;47.068;15.458;2022-09-17T11:29:43;1.40;;;1.30;;
13267;SDS011;6702;47.068;15.458;2022-09-17T11:36:47;2.23;;;2.03;;
13267;SDS011;6702;47.068;15.458;2022-09-17T11:39:56;2.13;;;1.93;;
13267;SDS011;6702;47.068;15.458;2022-09-17T11:43:03;1.50;;;1.40;;
13267;SDS011;6702;47.068;15.458;2022-09-17T11:46:17;2.73;;;1.90;;
13267;SDS011;6702;47.068;15.458;2022-09-17T11:49:25;1.87;;;1.77;;
13267;SDS011;6702;47.068;15.458;2022-09-17T11:52:36;2.60;;;1.77;;
13267;SDS011;6702;47.068;15.458;2022-09-17T11:55:46;1.40;;;1.30;;
13267;SDS011;6702;47.068;15.458;2022-09-17T11:58:54;2.73;;;1.43;;
13267;SDS011;6702;47.068;15.458;2022-09-17T12:02:03;1.10;;;1.00;;
13267;SDS011;6702;47.068;15.458;2022-09-17T12:05:14;2.93;;;1.33;;
13267;SDS011;6702;47.068;15.458;2022-09-17T12:08:23;1.67;;;1.00;;
13267;SDS011;6702;47.068;15.458;2022-09-17T12:11:29;1.23;;;1.13;;
13267;SDS011;6702;47.068;15.458;2022-09-17T12:14:38;3.90;;;1.10;;
13267;SDS011;6702;47.068;15.458;2022-09-17T12:17:52;0.90;;;0.90;;
13267;SDS011;6702;47.068;15.458;2022-09-17T12:21:25;1.07;;;0.97;;
13267;SDS011;6702;47.068;15.458;2022-09-17T12:24:33;1.20;;;0.90;;
13267;SDS011;6702;47.068;15.458;2022-09-17T12:27:37;1.23;;;0.90;;
13267;SDS011;6702;47.068;15.458;2022-09-17T12:30:49;1.30;;;0.90;;
13267;SDS011;6702;47.068;15.458;2022-09-17T12:33:56;0.70;;;0.70;;
13267;SDS011;6702;47.068;15.458;2022-09-17T12:37:06;1.60;;;0.80;;
13267;SDS011;6702;47.068;15.458;2022-09-17T12:40:18;2.87;;;0.67;;
13267;SDS011;6702;47.068;15.458;2022-09-17T12:43:36;2.53;;;1.30;;
13267;SDS011;6702;47.068;15.458;2022-09-17T12:46:56;0.73;;;0.73;;
13267;SDS011;6702;47.068;15.458;2022-09-17T12:50:13;3.40;;;1.27;;
13267;SDS011;6702;47.068;15.458;2022-09-17T12:53:22;2.00;;;0.83;;
13267;SDS011;6702;47.068;15.458;2022-09-17T12:56:37;1.73;;;1.00;;
13267;SDS011;6702;47.068;15.458;2022-09-17T12:59:51;1.90;;;0.90;;
13267;SDS011;6702;47.068;15.458;2022-09-17T13:03:11;2.20;;;0.97;;
13267;SDS011;6702;47.068;15.458;2022-09-17T13:10:32;1.33;;;1.20;;
13267;SDS011;6702;47.068;15.458;2022-09-17T13:13:55;2.50;;;0.90;;
13267;SDS011;6702;47.068;15.458;2022-09-17T13:17:06;2.03;;;0.80;;
13267;SDS011;6702;47.068;15.458;2022-09-17T13:20:13;2.63;;;0.80;;
13267;SDS011;6702;47.068;15.458;2022-09-17T13:23:28;1.17;;;0.70;;
13267;SDS011;6702;47.068;15.458;2022-09-17T13:26:37;1.37;;;0.90;;
13267;SDS011;6702;47.068;15.458;2022-09-17T13:33:00;1.90;;;0.93;;
13267;SDS011;6702;47.068;15.458;2022-09-17T13:36:04;1.00;;;0.80;;
13267;SDS011;6702;47.068;15.458;2022-09-17T13:39:38;1.00;;;0.73;;
13267;SDS011;6702;47.068;15.458;2022-09-17T13:42:44;1.13;;;0.90;;
13267;SDS011;6702;47.068;15.458;2022-09-17T13:46:09;1.97;;;1.10;;
13267;SDS011;6702;47.068;15.458;2022-09-17T13:49:17;2.30;;;1.57;;
13267;SDS011;6702;47.068;15.458;2022-09-17T13:52:33;1.17;;;1.07;;
13267;SDS011;6702;47.068;15.458;2022-09-17T13:55:40;1.13;;;1.07;;
13267;SDS011;6702;47.068;15.458;2022-09-17T13:58:45;0.90;;;0.83;;
13267;SDS011;6702;47.068;15.458;2022-09-17T14:02:00;1.70;;;0.80;;
13267;SDS011;6702;47.068;15.458;2022-09-17T14:05:24;1.70;;;0.87;;
13267;SDS011;6702;47.068;15.458;2022-09-17T14:08:46;1.40;;;1.13;;
13267;SDS011;6702;47.068;15.458;2022-09-17T14:11:50;2.80;;;1.13;;
13267;SDS011;6702;47.068;15.458;2022-09-17T14:14:53;1.47;;;1.23;;
13267;SDS011;6702;47.068;15.458;2022-09-17T14:17:57;1.50;;;1.40;;
13267;SDS011;6702;47.068;15.458;2022-09-17T14:21:10;1.40;;;1.30;;
13267;SDS011;6702;47.068;15.458;2022-09-17T14:24:18;2.50;;;1.60;;
13267;SDS011;6702;47.068;15.458;2022-09-17T14:27:40;3.07;;;1.40;;
13267;SDS011;6702;47.068;15.458;2022-09-17T14:30:55;1.97;;;1.33;;
13267;SDS011;6702;47.068;15.458;2022-09-17T14:34:00;3.10;;;1.53;;
13267;SDS011;6702;47.068;15.458;2022-09-17T14:37:07;2.10;;;1.80;;
13267;SDS011;6702;47.068;15.458;2022-09-17T14:40:15;3.27;;;1.70;;
13267;SDS011;6702;47.068;15.458;2022-09-17T14:43:20;2.73;;;1.97;;
13267;SDS011;6702;47.068;15.458;2022-09-17T14:46:32;2.27;;;1.70;;
13267;SDS011;6702;47.068;15.458;2022-09-17T14:49:38;4.40;;;1.90;;
13267;SDS011;6702;47.068;15.458;2022-09-17T14:52:46;2.47;;;1.83;;
13267;SDS011;6702;47.068;15.458;2022-09-17T14:55:50;2.93;;;1.67;;
13267;SDS011;6702;47.068;15.458;2022-09-17T14:58:53;5.13;;;1.77;;
13267;SDS011;6702;47.068;15.458;2022-09-17T15:01:56;2.00;;;1.33;;
13267;SDS011;6702;47.068;15.458;2022-09-17T15:05:10;3.10;;;1.83;;
13267;SDS011;6702;47.068;15.458;2022-09-17T15:08:19;1.93;;;1.63;;
13267;SDS011;6702;47.068;15.458;2022-09-17T15:11:24;1.97;;;1.53;;
13267;SDS011;6702;47.068;15.458;2022-09-17T15:14:27;1.93;;;1.73;;
13267;SDS011;6702;47.068;15.458;2022-09-17T15:17:32;1.83;;;1.73;;
13267;SDS011;6702;47.068;15.458;2022-09-17T15:20:38;2.50;;;1.50;;
13267;SDS011;6702;47.068;15.458;2022-09-17T15:23:41;4.00;;;2.30;;
13267;SDS011;6702;47.068;15.458;2022-09-17T15:26:46;1.80;;;1.70;;
13267;SDS011;6702;47.068;15.458;2022-09-17T15:29:52;2.80;;;2.17;;
13267;SDS011;6702;47.068;15.458;2022-09-17T15:32:59;2.63;;;2.40;;
13267;SDS011;6702;47.068;15.458;2022-09-17T15:36:08;2.93;;;2.37;;
13267;SDS011;6702;47.068;15.458;2022-09-17T15:39:29;2.73;;;2.53;;
13267;SDS011;6702;47.068;15.458;2022-09-17T15:42:33;2.37;;;1.97;;
13267;SDS011;6702;47.068;15.458;2022-09-17T15:45:36;3.37;;;2.07;;
13267;SDS011;6702;47.068;15.458;2022-09-17T15:48:42;2.90;;;1.30;;
13267;SDS011;6702;47.068;15.458;2022-09-17T15:51:46;1.70;;;1.60;;
13267;SDS011;6702;47.068;15.458;2022-09-17T15:54:50;3.23;;;1.60;;
13267;SDS011;6702;47.068;15.458;2022-09-17T15:57:53;2.50;;;1.47;;
13267;SDS011;6702;47.068;15.458;2022-09-17T16:04:38;1.30;;;1.20;;
13267;SDS011;6702;47.068;15.458;2022-09-17T16:07:43;2.30;;;2.10;;
13267;SDS011;6702;47.068;15.458;2022-09-17T16:10:47;2.23;;;2.03;;
13267;SDS011;6702;47.068;15.458;2022-09-17T16:13:51;3.30;;;2.67;;
13267;SDS011;6702;47.068;15.458;2022-09-17T16:16:55;2.70;;;2.20;;
13267;SDS011;6702;47.068;15.458;2022-09-17T16:20:04;2.20;;;2.00;;
13267;SDS011;6702;47.068;15.458;2022-09-17T16:23:11;2.53;;;2.33;;
13267;SDS011;6702;47.068;15.458;2022-09-17T16:26:15;5.40;;;2.60;;
13267;SDS011;6702;47.068;15.458;2022-09-17T16:29:20;1.93;;;1.83;;
13267;SDS011;6702;47.068;15.458;2022-09-17T16:32:23;2.37;;;1.90;;
13267;SDS011;6702;47.068;15.458;2022-09-17T16:35:26;4.70;;;2.40;;
13267;SDS011;6702;47.068;15.458;2022-09-17T16:38:31;1.33;;;1.00;;
13267;SDS011;6702;47.068;15.458;2022-09-17T16:41:34;2.10;;;1.90;;
13267;SDS011;6702;47.068;15.458;2022-09-17T16:44:37;3.40;;;2.30;;
13267;SDS011;6702;47.068;15.458;2022-09-17T16:47:41;2.60;;;1.57;;
13267;SDS011;6702;47.068;15.458;2022-09-17T16:50:45;1.97;;;1.50;;
13267;SDS011;6702;47.068;15.458;2022-09-17T16:53:49;1.43;;;1.33;;
13267;SDS011;6702;47.068;15.458;2022-09-17T16:56:52;1.63;;;1.53;;
13267;SDS011;6702;47.068;15.458;2022-09-17T16:59:56;1.10;;;0.90;;
13267;SDS011;6702;47.068;15.458;2022-09-17T17:02:59;1.37;;;1.27;;
13267;SDS011;6702;47.068;15.458;2022-09-17T17:06:03;2.00;;;0.97;;
13267;SDS011;6702;47.068;15.458;2022-09-17T17:09:08;1.53;;;1.10;;
13267;SDS011;6702;47.068;15.458;2022-09-17T17:12:12;1.30;;;1.20;;
13267;SDS011;6702;47.068;15.458;2022-09-17T17:15:15;2.07;;;0.80;;
13267;SDS011;6702;47.068;15.458;2022-09-17T17:18:19;1.80;;;0.87;;
13267;SDS011;6702;47.068;15.458;2022-09-17T17:21:23;1.90;;;1.10;;
13267;SDS011;6702;47.068;15.458;2022-09-17T17:24:27;1.07;;;0.70;;
13267;SDS011;6702;47.068;15.458;2022-09-17T17:27:31;1.83;;;0.73;;
13267;SDS011;6702;47.068;15.458;2022-09-17T17:30:34;0.80;;;0.70;;
13267;SDS011;6702;47.068;15.458;2022-09-17T17:33:38;0.77;;;0.77;;
13267;SDS011;6702;47.068;15.458;2022-09-17T17:36:42;1.20;;;0.80;;
13267;SDS011;6702;47.068;15.458;2022-09-17T17:39:47;2.10;;;1.10;;
13267;SDS011;6702;47.068;15.458;2022-09-17T17:42:50;1.23;;;0.80;;
13267;SDS011;6702;47.068;15.458;2022-09-17T17:45:54;0.80;;;0.80;;
13267;SDS011;6702;47.068;15.458;2022-09-17T17:48:57;1.50;;;1.13;;
13267;SDS011;6702;47.068;15.458;2022-09-17T17:52:00;2.10;;;1.03;;
13267;SDS011;6702;47.068;15.458;2022-09-17T17:55:05;2.60;;;1.10;;
13267;SDS011;6702;47.068;15.458;2022-09-17T17:58:09;1.53;;;1.03;;
13267;SDS011;6702;47.068;15.458;2022-09-17T18:01:13;1.27;;;1.00;;
13267;SDS011;6702;47.068;15.458;2022-09-17T18:04:17;1.00;;;0.87;;
13267;SDS011;6702;47.068;15.458;2022-09-17T18:07:20;1.33;;;1.23;;
13267;SDS011;6702;47.068;15.458;2022-09-17T18:10:25;4.13;;;3.73;;
13267;SDS011;6702;47.068;15.458;2022-09-17T18:13:28;2.20;;;1.70;;
13267;SDS011;6702;47.068;15.458;2022-09-17T18:16:31;1.40;;;1.30;;
13267;SDS011;6702;47.068;15.458;2022-09-17T18:19:35;1.60;;;1.47;;
13267;SDS011;6702;47.068;15.458;2022-09-17T18:22:38;2.83;;;2.43;;
13267;SDS011;6702;47.068;15.458;2022-09-17T18:25:43;4.20;;;2.67;;
13267;SDS011;6702;47.068;15.458;2022-09-17T18:28:54;2.30;;;1.83;;
13267;SDS011;6702;47.068;15.458;2022-09-17T18:31:57;3.03;;;2.03;;
13267;SDS011;6702;47.068;15.458;2022-09-17T18:35:00;4.47;;;2.20;;
13267;SDS011;6702;47.068;15.458;2022-09-17T18:38:04;3.43;;;1.83;;
13267;SDS011;6702;47.068;15.458;2022-09-17T18:41:10;1.97;;;1.10;;
13267;SDS011;6702;47.068;15.458;2022-09-17T18:44:14;2.40;;;1.43;;
13267;SDS011;6702;47.068;15.458;2022-09-17T18:47:19;2.13;;;1.73;;
13267;SDS011;6702;47.068;15.458;2022-09-17T18:50:22;1.97;;;1.60;;
13267;SDS011;6702;47.068;15.458;2022-09-17T18:53:26;2.07;;;1.80;;
13267;SDS011;6702;47.068;15.458;2022-09-17T18:56:32;1.70;;;1.57;;
13267;SDS011;6702;47.068;15.458;2022-09-17T18:59:36;1.50;;;1.10;;
13267;SDS011;6702;47.068;15.458;2022-09-17T19:02:39;3.53;;;1.87;;
13267;SDS011;6702;47.068;15.458;2022-09-17T19:05:42;1.33;;;1.23;;
13267;SDS011;6702;47.068;15.458;2022-09-17T19:08:45;1.40;;;1.20;;
13267;SDS011;6702;47.068;15.458;2022-09-17T19:11:50;2.20;;;1.47;;
13267;SDS011;6702;47.068;15.458;2022-09-17T19:14:53;1.30;;;1.10;;
13267;SDS011;6702;47.068;15.458;2022-09-17T19:17:56;3.17;;;1.83;;
13267;SDS011;6702;47.068;15.458;2022-09-17T19:21:00;1.33;;;1.23;;
13267;SDS011;6702;47.068;15.458;2022-09-17T19:24:04;1.53;;;1.43;;